Terminal Aerodrome Forecast
Issued by NWS

Home | Current Version | Previous Version | Graphics & Text | Print | Product List | Glossary On
Versions: 1 2 3 4 5 6 7 8 9 10 11 12 13 14 15 16
000
FTUS43 KGRB 311458 AAB
TAFATW
TAF AMD
KATW 311458Z 3115/0112 21007KT P6SM BKN005 OVC015
      TEMPO 3115/3117 SCT005 BKN015
     FM311700 21007KT P6SM BKN025
     FM311900 19005KT P6SM SCT030
     FM010100 20003KT P6SM SKC=

USA.gov is the U.S. government's official web portal to all federal, state and local government web resources and services.